sensor_id;sensor_type;location;lat;lon;timestamp;pressure;altitude;pressure_sealevel;temperature;humidity
28167;BME280;15455;53.376;-6.262;2023-04-25T00:02:33;101583.69;;;4.01;100.00
28167;BME280;15455;53.376;-6.262;2023-04-25T00:05:20;101586.09;;;3.96;100.00
28167;BME280;15455;53.376;-6.262;2023-04-25T00:08:08;101590.25;;;3.93;100.00
28167;BME280;15455;53.376;-6.262;2023-04-25T00:10:54;101589.22;;;3.88;100.00
28167;BME280;15455;53.376;-6.262;2023-04-25T00:13:39;101600.28;;;3.85;100.00
28167;BME280;15455;53.376;-6.262;2023-04-25T00:16:27;101604.47;;;3.81;100.00
28167;BME280;15455;53.376;-6.262;2023-04-25T00:19:14;101605.28;;;3.80;100.00
28167;BME280;15455;53.376;-6.262;2023-04-25T00:22:00;101605.22;;;3.79;100.00
28167;BME280;15455;53.376;-6.262;2023-04-25T00:24:45;101602.66;;;3.79;100.00
28167;BME280;15455;53.376;-6.262;2023-04-25T00:27:31;101590.53;;;3.78;100.00
28167;BME280;15455;53.376;-6.262;2023-04-25T00:30:17;101591.34;;;3.77;100.00
28167;BME280;15455;53.376;-6.262;2023-04-25T00:33:03;101586.06;;;3.74;100.00
28167;BME280;15455;53.376;-6.262;2023-04-25T00:35:48;101587.69;;;3.70;100.00
28167;BME280;15455;53.376;-6.262;2023-04-25T00:38:33;101589.19;;;3.65;100.00
28167;BME280;15455;53.376;-6.262;2023-04-25T00:41:19;101586.47;;;3.62;100.00
28167;BME280;15455;53.376;-6.262;2023-04-25T00:44:06;101591.59;;;3.60;100.00
28167;BME280;15455;53.376;-6.262;2023-04-25T00:46:54;101582.00;;;3.58;100.00
28167;BME280;15455;53.376;-6.262;2023-04-25T00:49:39;101585.44;;;3.57;100.00
28167;BME280;15455;53.376;-6.262;2023-04-25T00:52:25;101586.25;;;3.56;100.00
28167;BME280;15455;53.376;-6.262;2023-04-25T00:55:12;101577.69;;;3.57;100.00
28167;BME280;15455;53.376;-6.262;2023-04-25T00:57:58;101587.06;;;3.55;100.00
28167;BME280;15455;53.376;-6.262;2023-04-25T01:00:45;101582.59;;;3.51;100.00
28167;BME280;15455;53.376;-6.262;2023-04-25T01:03:37;101581.53;;;3.45;100.00
28167;BME280;15455;53.376;-6.262;2023-04-25T01:06:27;101585.69;;;3.42;100.00
28167;BME280;15455;53.376;-6.262;2023-04-25T01:09:13;101585.63;;;3.40;100.00
28167;BME280;15455;53.376;-6.262;2023-04-25T01:11:59;101590.84;;;3.42;100.00
28167;BME280;15455;53.376;-6.262;2023-04-25T01:14:46;101582.94;;;3.37;100.00
28167;BME280;15455;53.376;-6.262;2023-04-25T01:17:34;101593.88;;;3.32;100.00
28167;BME280;15455;53.376;-6.262;2023-04-25T01:20:21;101589.09;;;3.20;100.00
28167;BME280;15455;53.376;-6.262;2023-04-25T01:23:12;101580.84;;;3.07;100.00
28167;BME280;15455;53.376;-6.262;2023-04-25T01:25:57;101572.50;;;2.92;100.00
28167;BME280;15455;53.376;-6.262;2023-04-25T01:28:43;101580.50;;;2.78;100.00
28167;BME280;15455;53.376;-6.262;2023-04-25T01:31:31;101578.22;;;2.65;100.00
28167;BME280;15455;53.376;-6.262;2023-04-25T01:34:17;101582.00;;;2.54;100.00
28167;BME280;15455;53.376;-6.262;2023-04-25T01:37:02;101573.63;;;2.38;100.00
28167;BME280;15455;53.376;-6.262;2023-04-25T01:39:47;101574.63;;;2.22;100.00
28167;BME280;15455;53.376;-6.262;2023-04-25T01:42:35;101565.13;;;2.02;100.00
28167;BME280;15455;53.376;-6.262;2023-04-25T01:45:21;101555.94;;;1.89;100.00
28167;BME280;15455;53.376;-6.262;2023-04-25T01:48:10;101563.25;;;1.80;100.00
28167;BME280;15455;53.376;-6.262;2023-04-25T01:50:56;101561.88;;;1.68;100.00
28167;BME280;15455;53.376;-6.262;2023-04-25T01:53:42;101559.81;;;1.61;100.00
28167;BME280;15455;53.376;-6.262;2023-04-25T01:56:32;101571.44;;;1.53;100.00
28167;BME280;15455;53.376;-6.262;2023-04-25T01:59:19;101571.22;;;1.48;100.00
28167;BME280;15455;53.376;-6.262;2023-04-25T02:02:17;101572.78;;;1.45;100.00
28167;BME280;15455;53.376;-6.262;2023-04-25T02:05:03;101572.13;;;1.49;100.00
28167;BME280;15455;53.376;-6.262;2023-04-25T02:07:51;101575.91;;;1.57;100.00
28167;BME280;15455;53.376;-6.262;2023-04-25T02:10:37;101571.66;;;1.58;100.00
28167;BME280;15455;53.376;-6.262;2023-04-25T02:13:41;101586.19;;;1.57;100.00
28167;BME280;15455;53.376;-6.262;2023-04-25T02:16:53;101581.72;;;1.53;100.00
28167;BME280;15455;53.376;-6.262;2023-04-25T02:19:40;101582.69;;;1.55;100.00
28167;BME280;15455;53.376;-6.262;2023-04-25T02:22:25;101583.63;;;1.57;100.00
28167;BME280;15455;53.376;-6.262;2023-04-25T02:25:14;101580.03;;;1.53;100.00
28167;BME280;15455;53.376;-6.262;2023-04-25T02:28:01;101579.66;;;1.46;100.00
28167;BME280;15455;53.376;-6.262;2023-04-25T02:30:47;101574.00;;;1.35;100.00
28167;BME280;15455;53.376;-6.262;2023-04-25T02:33:33;101577.03;;;1.26;100.00
28167;BME280;15455;53.376;-6.262;2023-04-25T02:36:18;101587.59;;;1.14;100.00
28167;BME280;15455;53.376;-6.262;2023-04-25T02:39:06;101579.41;;;1.05;100.00
28167;BME280;15455;53.376;-6.262;2023-04-25T02:41:52;101586.81;;;0.99;100.00
28167;BME280;15455;53.376;-6.262;2023-04-25T02:44:39;101589.47;;;1.00;100.00
28167;BME280;15455;53.376;-6.262;2023-04-25T02:47:24;101591.59;;;1.09;100.00
28167;BME280;15455;53.376;-6.262;2023-04-25T02:50:10;101598.81;;;1.16;100.00
28167;BME280;15455;53.376;-6.262;2023-04-25T02:52:58;101597.09;;;1.33;100.00
28167;BME280;15455;53.376;-6.262;2023-04-25T02:55:49;101596.78;;;1.45;100.00
28167;BME280;15455;53.376;-6.262;2023-04-25T02:58:35;101597.31;;;1.56;100.00
28167;BME280;15455;53.376;-6.262;2023-04-25T03:01:20;101599.06;;;1.57;100.00
28167;BME280;15455;53.376;-6.262;2023-04-25T03:04:06;101595.47;;;1.71;100.00
28167;BME280;15455;53.376;-6.262;2023-04-25T03:06:52;101600.09;;;1.79;100.00
28167;BME280;15455;53.376;-6.262;2023-04-25T03:09:39;101597.91;;;1.86;100.00
28167;BME280;15455;53.376;-6.262;2023-04-25T03:12:26;101589.53;;;1.92;100.00
28167;BME280;15455;53.376;-6.262;2023-04-25T03:15:11;101582.78;;;1.94;100.00
28167;BME280;15455;53.376;-6.262;2023-04-25T03:17:56;101578.38;;;1.91;100.00
28167;BME280;15455;53.376;-6.262;2023-04-25T03:20:42;101583.38;;;1.88;100.00
28167;BME280;15455;53.376;-6.262;2023-04-25T03:23:28;101581.28;;;1.80;100.00
28167;BME280;15455;53.376;-6.262;2023-04-25T03:26:14;101583.41;;;1.70;100.00
28167;BME280;15455;53.376;-6.262;2023-04-25T03:28:59;101576.81;;;1.58;100.00
28167;BME280;15455;53.376;-6.262;2023-04-25T03:31:46;101581.56;;;1.50;100.00
28167;BME280;15455;53.376;-6.262;2023-04-25T03:34:32;101581.94;;;1.39;100.00
28167;BME280;15455;53.376;-6.262;2023-04-25T03:37:17;101595.25;;;1.31;100.00
28167;BME280;15455;53.376;-6.262;2023-04-25T03:40:03;101585.25;;;1.19;100.00
28167;BME280;15455;53.376;-6.262;2023-04-25T03:43:09;101585.66;;;1.10;100.00
28167;BME280;15455;53.376;-6.262;2023-04-25T03:45:58;101584.31;;;1.00;100.00
28167;BME280;15455;53.376;-6.262;2023-04-25T03:48:43;101587.09;;;0.87;100.00
28167;BME280;15455;53.376;-6.262;2023-04-25T03:51:35;101579.66;;;0.75;100.00
28167;BME280;15455;53.376;-6.262;2023-04-25T03:54:21;101577.88;;;0.58;100.00
28167;BME280;15455;53.376;-6.262;2023-04-25T03:57:14;101571.81;;;0.39;100.00
28167;BME280;15455;53.376;-6.262;2023-04-25T04:00:01;101573.97;;;0.31;100.00
28167;BME280;15455;53.376;-6.262;2023-04-25T04:02:57;101577.81;;;0.23;100.00
28167;BME280;15455;53.376;-6.262;2023-04-25T04:05:43;101581.03;;;0.19;100.00
28167;BME280;15455;53.376;-6.262;2023-04-25T04:08:28;101590.00;;;0.27;100.00
28167;BME280;15455;53.376;-6.262;2023-04-25T04:11:14;101590.06;;;0.29;100.00
28167;BME280;15455;53.376;-6.262;2023-04-25T04:14:00;101584.16;;;0.30;100.00
28167;BME280;15455;53.376;-6.262;2023-04-25T04:16:46;101590.75;;;0.25;100.00
28167;BME280;15455;53.376;-6.262;2023-04-25T04:19:31;101590.41;;;0.35;100.00
28167;BME280;15455;53.376;-6.262;2023-04-25T04:22:25;101586.78;;;0.31;100.00
28167;BME280;15455;53.376;-6.262;2023-04-25T04:25:15;101585.53;;;0.23;100.00
28167;BME280;15455;53.376;-6.262;2023-04-25T04:28:32;101579.81;;;0.12;100.00
28167;BME280;15455;53.376;-6.262;2023-04-25T04:31:23;101591.16;;;0.01;100.00
28167;BME280;15455;53.376;-6.262;2023-04-25T04:34:09;101587.41;;;-0.06;100.00
28167;BME280;15455;53.376;-6.262;2023-04-25T04:36:55;101591.72;;;-0.05;100.00
28167;BME280;15455;53.376;-6.262;2023-04-25T04:39:41;101596.16;;;-0.02;100.00
28167;BME280;15455;53.376;-6.262;2023-04-25T04:42:41;101599.97;;;-0.10;100.00
28167;BME280;15455;53.376;-6.262;2023-04-25T04:45:52;101600.97;;;-0.23;100.00
28167;BME280;15455;53.376;-6.262;2023-04-25T04:49:00;101598.44;;;-0.38;100.00
28167;BME280;15455;53.376;-6.262;2023-04-25T04:52:03;101609.69;;;-0.36;100.00
28167;BME280;15455;53.376;-6.262;2023-04-25T04:54:55;101606.75;;;-0.27;100.00
28167;BME280;15455;53.376;-6.262;2023-04-25T04:58:03;101609.66;;;-0.21;100.00
28167;BME280;15455;53.376;-6.262;2023-04-25T05:01:25;101612.06;;;-0.24;100.00
28167;BME280;15455;53.376;-6.262;2023-04-25T05:04:20;101613.53;;;-0.13;100.00
28167;BME280;15455;53.376;-6.262;2023-04-25T05:07:25;101612.88;;;-0.09;100.00
28167;BME280;15455;53.376;-6.262;2023-04-25T05:10:30;101617.22;;;-0.08;100.00
28167;BME280;15455;53.376;-6.262;2023-04-25T05:13:28;101624.38;;;-0.02;100.00
28167;BME280;15455;53.376;-6.262;2023-04-25T05:16:29;101623.13;;;0.06;100.00
28167;BME280;15455;53.376;-6.262;2023-04-25T05:19:32;101628.03;;;0.18;100.00
28167;BME280;15455;53.376;-6.262;2023-04-25T05:22:38;101639.59;;;0.26;100.00
28167;BME280;15455;53.376;-6.262;2023-04-25T05:25:33;101641.19;;;0.24;100.00
28167;BME280;15455;53.376;-6.262;2023-04-25T05:28:40;101636.13;;;0.26;100.00
28167;BME280;15455;53.376;-6.262;2023-04-25T05:31:36;101634.47;;;0.26;100.00
28167;BME280;15455;53.376;-6.262;2023-04-25T05:34:31;101636.63;;;0.35;100.00
28167;BME280;15455;53.376;-6.262;2023-04-25T05:37:19;101630.19;;;0.43;100.00
28167;BME280;15455;53.376;-6.262;2023-04-25T05:40:14;101636.72;;;0.53;100.00
28167;BME280;15455;53.376;-6.262;2023-04-25T05:43:02;101644.03;;;0.62;100.00
28167;BME280;15455;53.376;-6.262;2023-04-25T05:46:20;101647.66;;;0.65;100.00
28167;BME280;15455;53.376;-6.262;2023-04-25T05:49:20;101645.88;;;0.64;100.00
28167;BME280;15455;53.376;-6.262;2023-04-25T05:52:24;101648.53;;;0.66;100.00
28167;BME280;15455;53.376;-6.262;2023-04-25T05:55:28;101642.66;;;0.68;100.00
28167;BME280;15455;53.376;-6.262;2023-04-25T05:58:16;101652.63;;;0.79;100.00
28167;BME280;15455;53.376;-6.262;2023-04-25T06:01:02;101653.97;;;0.89;100.00
28167;BME280;15455;53.376;-6.262;2023-04-25T06:03:47;101658.56;;;0.94;100.00
28167;BME280;15455;53.376;-6.262;2023-04-25T06:06:35;101657.16;;;1.01;100.00
28167;BME280;15455;53.376;-6.262;2023-04-25T06:09:20;101660.16;;;1.09;100.00
28167;BME280;15455;53.376;-6.262;2023-04-25T06:12:06;101658.75;;;1.15;100.00
28167;BME280;15455;53.376;-6.262;2023-04-25T06:14:53;101662.44;;;1.20;100.00
28167;BME280;15455;53.376;-6.262;2023-04-25T06:17:40;101660.81;;;1.23;100.00
28167;BME280;15455;53.376;-6.262;2023-04-25T06:20:25;101663.66;;;1.27;100.00
28167;BME280;15455;53.376;-6.262;2023-04-25T06:23:14;101661.38;;;1.33;100.00
28167;BME280;15455;53.376;-6.262;2023-04-25T06:26:09;101659.19;;;1.41;100.00
28167;BME280;15455;53.376;-6.262;2023-04-25T06:28:57;101662.88;;;1.46;100.00
28167;BME280;15455;53.376;-6.262;2023-04-25T06:31:42;101664.78;;;1.50;100.00
28167;BME280;15455;53.376;-6.262;2023-04-25T06:34:29;101674.41;;;1.54;100.00
28167;BME280;15455;53.376;-6.262;2023-04-25T06:37:17;101675.59;;;1.61;100.00
28167;BME280;15455;53.376;-6.262;2023-04-25T06:40:03;101673.25;;;1.66;100.00
28167;BME280;15455;53.376;-6.262;2023-04-25T06:42:48;101673.63;;;1.73;100.00
28167;BME280;15455;53.376;-6.262;2023-04-25T06:45:52;101669.78;;;1.83;100.00
28167;BME280;15455;53.376;-6.262;2023-04-25T06:48:39;101666.78;;;1.92;100.00
28167;BME280;15455;53.376;-6.262;2023-04-25T06:51:25;101670.06;;;2.07;100.00
28167;BME280;15455;53.376;-6.262;2023-04-25T06:54:14;101670.16;;;2.27;100.00
28167;BME280;15455;53.376;-6.262;2023-04-25T06:57:11;101667.72;;;2.50;100.00
28167;BME280;15455;53.376;-6.262;2023-04-25T06:59:57;101666.91;;;2.90;100.00
28167;BME280;15455;53.376;-6.262;2023-04-25T07:02:45;101664.13;;;3.45;100.00
28167;BME280;15455;53.376;-6.262;2023-04-25T07:05:31;101661.34;;;3.83;100.00
28167;BME280;15455;53.376;-6.262;2023-04-25T07:08:17;101658.69;;;4.04;100.00
28167;BME280;15455;53.376;-6.262;2023-04-25T07:11:04;101655.47;;;4.32;100.00
28167;BME280;15455;53.376;-6.262;2023-04-25T07:13:49;101653.22;;;4.64;100.00
28167;BME280;15455;53.376;-6.262;2023-04-25T07:16:34;101635.66;;;4.80;100.00
28167;BME280;15455;53.376;-6.262;2023-04-25T07:19:20;101633.03;;;4.78;100.00
28167;BME280;15455;53.376;-6.262;2023-04-25T07:22:06;101629.59;;;4.79;100.00
28167;BME280;15455;53.376;-6.262;2023-04-25T07:24:54;101626.13;;;4.79;100.00
28167;BME280;15455;53.376;-6.262;2023-04-25T07:27:43;101624.31;;;4.76;100.00
28167;BME280;15455;53.376;-6.262;2023-04-25T07:30:36;101623.41;;;4.74;100.00
28167;BME280;15455;53.376;-6.262;2023-04-25T07:33:21;101625.44;;;4.83;100.00
28167;BME280;15455;53.376;-6.262;2023-04-25T07:36:08;101624.88;;;4.92;100.00
28167;BME280;15455;53.376;-6.262;2023-04-25T07:38:54;101617.31;;;4.98;100.00
28167;BME280;15455;53.376;-6.262;2023-04-25T07:41:39;101621.09;;;5.08;100.00
28167;BME280;15455;53.376;-6.262;2023-04-25T07:44:29;101622.06;;;5.11;100.00
28167;BME280;15455;53.376;-6.262;2023-04-25T07:47:16;101616.22;;;5.17;100.00
28167;BME280;15455;53.376;-6.262;2023-04-25T07:50:03;101616.34;;;5.20;100.00
28167;BME280;15455;53.376;-6.262;2023-04-25T07:52:49;101620.72;;;5.22;100.00
28167;BME280;15455;53.376;-6.262;2023-04-25T07:55:50;101619.00;;;5.21;100.00
28167;BME280;15455;53.376;-6.262;2023-04-25T07:58:37;101620.72;;;5.22;100.00
28167;BME280;15455;53.376;-6.262;2023-04-25T08:01:26;101627.72;;;5.25;100.00
28167;BME280;15455;53.376;-6.262;2023-04-25T08:04:18;101623.59;;;5.30;100.00
28167;BME280;15455;53.376;-6.262;2023-04-25T08:07:19;101618.66;;;5.38;100.00
28167;BME280;15455;53.376;-6.262;2023-04-25T08:10:10;101621.53;;;5.47;100.00
28167;BME280;15455;53.376;-6.262;2023-04-25T08:12:58;101621.03;;;5.57;100.00
28167;BME280;15455;53.376;-6.262;2023-04-25T08:15:44;101627.63;;;5.75;100.00
28167;BME280;15455;53.376;-6.262;2023-04-25T08:18:30;101629.06;;;5.94;100.00
28167;BME280;15455;53.376;-6.262;2023-04-25T08:21:16;101621.03;;;6.14;100.00
28167;BME280;15455;53.376;-6.262;2023-04-25T08:24:02;101623.22;;;6.29;100.00
28167;BME280;15455;53.376;-6.262;2023-04-25T08:26:51;101618.44;;;6.44;100.00
28167;BME280;15455;53.376;-6.262;2023-04-25T08:29:39;101617.28;;;6.63;100.00
28167;BME280;15455;53.376;-6.262;2023-04-25T08:32:24;101611.53;;;6.75;100.00
28167;BME280;15455;53.376;-6.262;2023-04-25T08:35:35;101618.88;;;6.91;100.00
28167;BME280;15455;53.376;-6.262;2023-04-25T08:38:21;101621.09;;;7.09;100.00
28167;BME280;15455;53.376;-6.262;2023-04-25T08:41:08;101617.88;;;7.18;100.00
28167;BME280;15455;53.376;-6.262;2023-04-25T08:43:56;101614.31;;;7.15;100.00
28167;BME280;15455;53.376;-6.262;2023-04-25T08:46:46;101618.66;;;7.16;100.00
28167;BME280;15455;53.376;-6.262;2023-04-25T08:49:49;101622.44;;;7.28;100.00
28167;BME280;15455;53.376;-6.262;2023-04-25T08:52:43;101614.88;;;7.38;100.00
28167;BME280;15455;53.376;-6.262;2023-04-25T08:55:30;101616.31;;;7.61;100.00
28167;BME280;15455;53.376;-6.262;2023-04-25T08:58:18;101613.69;;;7.98;100.00
28167;BME280;15455;53.376;-6.262;2023-04-25T09:01:03;101608.31;;;8.31;100.00
28167;BME280;15455;53.376;-6.262;2023-04-25T09:03:59;101614.34;;;8.70;100.00
28167;BME280;15455;53.376;-6.262;2023-04-25T09:06:46;101611.31;;;8.94;100.00
28167;BME280;15455;53.376;-6.262;2023-04-25T09:09:32;101597.34;;;8.89;100.00
28167;BME280;15455;53.376;-6.262;2023-04-25T09:12:18;101592.81;;;8.79;100.00
28167;BME280;15455;53.376;-6.262;2023-04-25T09:15:07;101602.00;;;9.07;100.00
28167;BME280;15455;53.376;-6.262;2023-04-25T09:18:09;101594.59;;;9.32;100.00
28167;BME280;15455;53.376;-6.262;2023-04-25T09:23:58;101602.13;;;9.68;100.00
28167;BME280;15455;53.376;-6.262;2023-04-25T09:26:45;101608.97;;;9.63;100.00
28167;BME280;15455;53.376;-6.262;2023-04-25T09:29:33;101604.41;;;9.48;100.00
28167;BME280;15455;53.376;-6.262;2023-04-25T09:32:22;101604.38;;;9.47;100.00
28167;BME280;15455;53.376;-6.262;2023-04-25T09:35:24;101606.19;;;9.51;100.00
28167;BME280;15455;53.376;-6.262;2023-04-25T09:38:13;101610.00;;;9.73;100.00
28167;BME280;15455;53.376;-6.262;2023-04-25T09:41:37;101599.91;;;9.98;100.00
28167;BME280;15455;53.376;-6.262;2023-04-25T09:44:24;101603.69;;;10.18;100.00
28167;BME280;15455;53.376;-6.262;2023-04-25T09:47:13;101602.28;;;10.45;100.00
28167;BME280;15455;53.376;-6.262;2023-04-25T09:50:00;101608.63;;;10.69;100.00
28167;BME280;15455;53.376;-6.262;2023-04-25T09:53:02;101604.34;;;10.72;100.00
28167;BME280;15455;53.376;-6.262;2023-04-25T09:55:51;101604.34;;;10.74;100.00
28167;BME280;15455;53.376;-6.262;2023-04-25T09:58:39;101604.91;;;10.47;100.00
28167;BME280;15455;53.376;-6.262;2023-04-25T10:01:26;101609.25;;;10.43;100.00
28167;BME280;15455;53.376;-6.262;2023-04-25T10:04:28;101614.50;;;10.46;100.00
28167;BME280;15455;53.376;-6.262;2023-04-25T10:07:36;101614.22;;;10.28;100.00
28167;BME280;15455;53.376;-6.262;2023-04-25T10:10:27;101621.03;;;10.18;100.00
28167;BME280;15455;53.376;-6.262;2023-04-25T10:13:16;101620.28;;;10.26;100.00
28167;BME280;15455;53.376;-6.262;2023-04-25T10:16:03;101613.81;;;10.66;100.00
28167;BME280;15455;53.376;-6.262;2023-04-25T10:18:49;101617.66;;;10.97;100.00
28167;BME280;15455;53.376;-6.262;2023-04-25T10:21:44;101622.28;;;11.27;100.00
28167;BME280;15455;53.376;-6.262;2023-04-25T10:24:31;101618.16;;;11.53;100.00
28167;BME280;15455;53.376;-6.262;2023-04-25T10:27:17;101617.34;;;11.63;100.00
28167;BME280;15455;53.376;-6.262;2023-04-25T10:30:07;101620.03;;;11.78;100.00
28167;BME280;15455;53.376;-6.262;2023-04-25T10:32:56;101621.94;;;11.93;100.00
28167;BME280;15455;53.376;-6.262;2023-04-25T10:35:44;101616.66;;;11.92;100.00
28167;BME280;15455;53.376;-6.262;2023-04-25T10:38:30;101620.97;;;11.82;100.00
28167;BME280;15455;53.376;-6.262;2023-04-25T10:41:18;101622.59;;;11.66;100.00
28167;BME280;15455;53.376;-6.262;2023-04-25T10:44:04;101625.13;;;11.57;100.00
28167;BME280;15455;53.376;-6.262;2023-04-25T10:46:49;101620.03;;;11.78;100.00
28167;BME280;15455;53.376;-6.262;2023-04-25T10:49:37;101619.34;;;11.96;100.00
28167;BME280;15455;53.376;-6.262;2023-04-25T10:55:09;101626.38;;;12.08;100.00
28167;BME280;15455;53.376;-6.262;2023-04-25T10:57:54;101617.78;;;12.32;100.00
28167;BME280;15455;53.376;-6.262;2023-04-25T11:00:40;101616.94;;;12.44;100.00
28167;BME280;15455;53.376;-6.262;2023-04-25T11:03:43;101623.09;;;12.49;100.00
28167;BME280;15455;53.376;-6.262;2023-04-25T11:06:48;101615.22;;;12.53;100.00
28167;BME280;15455;53.376;-6.262;2023-04-25T11:09:45;101627.50;;;12.72;100.00
28167;BME280;15455;53.376;-6.262;2023-04-25T11:12:31;101616.16;;;12.81;100.00
28167;BME280;15455;53.376;-6.262;2023-04-25T11:15:17;101607.44;;;12.85;100.00
28167;BME280;15455;53.376;-6.262;2023-04-25T11:18:02;101608.28;;;12.68;100.00
28167;BME280;15455;53.376;-6.262;2023-04-25T11:20:49;101607.38;;;12.54;100.00
28167;BME280;15455;53.376;-6.262;2023-04-25T11:23:35;101604.66;;;12.28;100.00
28167;BME280;15455;53.376;-6.262;2023-04-25T11:26:21;101616.75;;;12.04;100.00
28167;BME280;15455;53.376;-6.262;2023-04-25T11:29:07;101612.28;;;11.91;100.00
28167;BME280;15455;53.376;-6.262;2023-04-25T11:31:54;101610.53;;;11.88;100.00
28167;BME280;15455;53.376;-6.262;2023-04-25T11:34:44;101607.06;;;11.92;100.00
28167;BME280;15455;53.376;-6.262;2023-04-25T11:37:30;101606.28;;;11.99;100.00
28167;BME280;15455;53.376;-6.262;2023-04-25T11:40:15;101603.69;;;12.07;100.00
28167;BME280;15455;53.376;-6.262;2023-04-25T11:43:01;101602.91;;;12.24;100.00
28167;BME280;15455;53.376;-6.262;2023-04-25T11:45:50;101594.16;;;12.25;100.00
28167;BME280;15455;53.376;-6.262;2023-04-25T11:48:43;101594.13;;;12.12;100.00
28167;BME280;15455;53.376;-6.262;2023-04-25T11:51:28;101596.72;;;12.08;100.00
28167;BME280;15455;53.376;-6.262;2023-04-25T11:54:15;101594.94;;;12.02;100.00
28167;BME280;15455;53.376;-6.262;2023-04-25T11:57:01;101584.50;;;12.08;100.00
28167;BME280;15455;53.376;-6.262;2023-04-25T11:59:46;101594.22;;;12.31;100.00
28167;BME280;15455;53.376;-6.262;2023-04-25T12:02:35;101594.22;;;12.37;100.00
28167;BME280;15455;53.376;-6.262;2023-04-25T12:05:25;101594.28;;;12.48;100.00
28167;BME280;15455;53.376;-6.262;2023-04-25T12:08:17;101589.06;;;12.59;100.00
28167;BME280;15455;53.376;-6.262;2023-04-25T12:11:03;101591.69;;;12.59;100.00
28167;BME280;15455;53.376;-6.262;2023-04-25T12:13:51;101592.59;;;12.70;100.00
28167;BME280;15455;53.376;-6.262;2023-04-25T12:16:45;101587.31;;;12.61;100.00
28167;BME280;15455;53.376;-6.262;2023-04-25T12:19:35;101591.72;;;12.83;100.00
28167;BME280;15455;53.376;-6.262;2023-04-25T12:22:23;101598.72;;;12.92;100.00
28167;BME280;15455;53.376;-6.262;2023-04-25T12:25:09;101601.34;;;12.83;100.00
28167;BME280;15455;53.376;-6.262;2023-04-25T12:27:54;101595.22;;;12.73;100.00
28167;BME280;15455;53.376;-6.262;2023-04-25T12:30:53;101596.94;;;12.69;100.00
28167;BME280;15455;53.376;-6.262;2023-04-25T12:33:38;101588.25;;;12.81;100.00
28167;BME280;15455;53.376;-6.262;2023-04-25T12:36:25;101589.16;;;12.99;100.00
28167;BME280;15455;53.376;-6.262;2023-04-25T12:39:24;101593.53;;;13.23;100.00
28167;BME280;15455;53.376;-6.262;2023-04-25T12:42:13;101589.16;;;13.24;100.00
28167;BME280;15455;53.376;-6.262;2023-04-25T12:44:58;101588.28;;;13.05;100.00
28167;BME280;15455;53.376;-6.262;2023-04-25T12:47:43;101583.91;;;13.24;100.00
28167;BME280;15455;53.376;-6.262;2023-04-25T12:50:28;101589.16;;;13.27;100.00
28167;BME280;15455;53.376;-6.262;2023-04-25T12:53:22;101582.16;;;13.15;100.00
28167;BME280;15455;53.376;-6.262;2023-04-25T12:56:08;101583.91;;;13.03;100.00
28167;BME280;15455;53.376;-6.262;2023-04-25T12:58:53;101586.47;;;12.74;100.00
28167;BME280;15455;53.376;-6.262;2023-04-25T13:01:39;101590.75;;;12.37;100.00
28167;BME280;15455;53.376;-6.262;2023-04-25T13:04:24;101592.44;;;12.27;100.00
28167;BME280;15455;53.376;-6.262;2023-04-25T13:07:10;101590.66;;;12.13;100.00
28167;BME280;15455;53.376;-6.262;2023-04-25T13:09:56;101584.50;;;12.08;100.00
28167;BME280;15455;53.376;-6.262;2023-04-25T13:12:41;101590.50;;;11.92;100.00
28167;BME280;15455;53.376;-6.262;2023-04-25T13:15:27;101593.06;;;11.87;100.00
28167;BME280;15455;53.376;-6.262;2023-04-25T13:18:12;101586.97;;;11.84;100.00
28167;BME280;15455;53.376;-6.262;2023-04-25T13:20:58;101586.94;;;11.76;100.00
28167;BME280;15455;53.376;-6.262;2023-04-25T13:23:44;101583.34;;;11.60;100.00
28167;BME280;15455;53.376;-6.262;2023-04-25T13:26:31;101580.56;;;11.38;100.00
28167;BME280;15455;53.376;-6.262;2023-04-25T13:29:17;101585.09;;;11.65;100.00
28167;BME280;15455;53.376;-6.262;2023-04-25T13:32:02;101582.59;;;11.81;100.00
28167;BME280;15455;53.376;-6.262;2023-04-25T13:34:48;101577.44;;;11.92;100.00
28167;BME280;15455;53.376;-6.262;2023-04-25T13:37:34;101580.03;;;11.89;100.00
28167;BME280;15455;53.376;-6.262;2023-04-25T13:40:20;101575.59;;;11.78;100.00
28167;BME280;15455;53.376;-6.262;2023-04-25T13:43:09;101570.31;;;11.66;100.00
28167;BME280;15455;53.376;-6.262;2023-04-25T13:45:55;101565.91;;;11.62;100.00
28167;BME280;15455;53.376;-6.262;2023-04-25T13:48:40;101563.38;;;11.74;100.00
28167;BME280;15455;53.376;-6.262;2023-04-25T13:51:31;101563.41;;;11.82;100.00
28167;BME280;15455;53.376;-6.262;2023-04-25T13:54:17;101570.31;;;11.68;100.00
28167;BME280;15455;53.376;-6.262;2023-04-25T13:57:02;101559.94;;;11.81;100.00
28167;BME280;15455;53.376;-6.262;2023-04-25T13:59:48;101558.31;;;12.04;100.00
28167;BME280;15455;53.376;-6.262;2023-04-25T14:02:34;101555.88;;;12.42;100.00
28167;BME280;15455;53.376;-6.262;2023-04-25T14:05:19;101555.91;;;12.82;100.00
28167;BME280;15455;53.376;-6.262;2023-04-25T14:08:06;101556.81;;;12.95;100.00
28167;BME280;15455;53.376;-6.262;2023-04-25T14:10:52;101552.47;;;13.00;100.00
28167;BME280;15455;53.376;-6.262;2023-04-25T14:13:37;101553.28;;;12.65;100.00
28167;BME280;15455;53.376;-6.262;2023-04-25T14:16:22;101553.19;;;12.31;100.00
28167;BME280;15455;53.376;-6.262;2023-04-25T14:19:08;101553.09;;;12.07;100.00
28167;BME280;15455;53.376;-6.262;2023-04-25T14:21:53;101545.09;;;11.82;100.00
28167;BME280;15455;53.376;-6.262;2023-04-25T14:24:39;101545.84;;;11.58;100.00
28167;BME280;15455;53.376;-6.262;2023-04-25T14:27:24;101541.47;;;11.57;100.00
28167;BME280;15455;53.376;-6.262;2023-04-25T14:30:13;101544.06;;;11.55;100.00
28167;BME280;15455;53.376;-6.262;2023-04-25T14:32:58;101543.19;;;11.53;100.00
28167;BME280;15455;53.376;-6.262;2023-04-25T14:35:44;101543.19;;;11.52;100.00